sensor_id;sensor_type;location;lat;lon;timestamp;P1;durP1;ratioP1;P2;durP2;ratioP2
75774;SDS011;64505;51.458;7.556;2023-04-24T00:00:21;3.10;;;1.02;;
75774;SDS011;64505;51.458;7.556;2023-04-24T00:02:22;3.00;;;1.10;;
75774;SDS011;64505;51.458;7.556;2023-04-24T00:04:25;4.78;;;1.20;;
75774;SDS011;64505;51.458;7.556;2023-04-24T00:06:27;2.60;;;0.90;;
75774;SDS011;64505;51.458;7.556;2023-04-24T00:08:34;1.40;;;0.50;;
75774;SDS011;64505;51.458;7.556;2023-04-24T00:10:36;1.45;;;0.50;;
75774;SDS011;64505;51.458;7.556;2023-04-24T00:12:38;1.48;;;0.80;;
75774;SDS011;64505;51.458;7.556;2023-04-24T00:14:39;1.65;;;0.45;;
75774;SDS011;64505;51.458;7.556;2023-04-24T00:16:41;0.93;;;0.40;;
75774;SDS011;64505;51.458;7.556;2023-04-24T00:18:42;1.80;;;0.60;;
75774;SDS011;64505;51.458;7.556;2023-04-24T00:20:45;1.13;;;0.60;;
75774;SDS011;64505;51.458;7.556;2023-04-24T00:22:47;2.38;;;1.00;;
75774;SDS011;64505;51.458;7.556;2023-04-24T00:24:49;1.25;;;0.93;;
75774;SDS011;64505;51.458;7.556;2023-04-24T00:26:50;1.85;;;0.63;;
75774;SDS011;64505;51.458;7.556;2023-04-24T00:28:52;2.60;;;1.33;;
75774;SDS011;64505;51.458;7.556;2023-04-24T00:30:53;3.45;;;1.67;;
75774;SDS011;64505;51.458;7.556;2023-04-24T00:32:55;2.63;;;1.63;;
75774;SDS011;64505;51.458;7.556;2023-04-24T00:34:56;3.42;;;2.05;;
75774;SDS011;64505;51.458;7.556;2023-04-24T00:36:58;6.43;;;2.70;;
75774;SDS011;64505;51.458;7.556;2023-04-24T00:38:59;4.40;;;2.40;;
75774;SDS011;64505;51.458;7.556;2023-04-24T00:41:00;5.68;;;2.65;;
75774;SDS011;64505;51.458;7.556;2023-04-24T00:43:02;4.82;;;2.95;;
75774;SDS011;64505;51.458;7.556;2023-04-24T00:45:03;6.97;;;3.60;;
75774;SDS011;64505;51.458;7.556;2023-04-24T00:47:06;6.38;;;3.20;;
75774;SDS011;64505;51.458;7.556;2023-04-24T00:49:08;7.10;;;3.75;;
75774;SDS011;64505;51.458;7.556;2023-04-24T00:51:09;6.22;;;3.45;;
75774;SDS011;64505;51.458;7.556;2023-04-24T00:53:11;6.18;;;4.00;;
75774;SDS011;64505;51.458;7.556;2023-04-24T00:55:12;6.38;;;3.72;;
75774;SDS011;64505;51.458;7.556;2023-04-24T00:57:15;5.05;;;3.30;;
75774;SDS011;64505;51.458;7.556;2023-04-24T00:59:16;5.38;;;3.15;;
75774;SDS011;64505;51.458;7.556;2023-04-24T01:01:19;7.25;;;3.50;;
75774;SDS011;64505;51.458;7.556;2023-04-24T01:03:22;4.95;;;2.88;;
75774;SDS011;64505;51.458;7.556;2023-04-24T01:05:27;6.22;;;2.88;;
75774;SDS011;64505;51.458;7.556;2023-04-24T01:07:29;5.55;;;2.47;;
75774;SDS011;64505;51.458;7.556;2023-04-24T01:09:31;4.57;;;1.70;;
75774;SDS011;64505;51.458;7.556;2023-04-24T01:11:32;3.20;;;1.25;;
75774;SDS011;64505;51.458;7.556;2023-04-24T01:13:33;1.50;;;0.90;;
75774;SDS011;64505;51.458;7.556;2023-04-24T01:15:35;2.58;;;1.13;;
75774;SDS011;64505;51.458;7.556;2023-04-24T01:17:37;1.23;;;0.73;;
75774;SDS011;64505;51.458;7.556;2023-04-24T01:19:40;2.42;;;1.20;;
75774;SDS011;64505;51.458;7.556;2023-04-24T01:21:42;2.55;;;1.00;;
75774;SDS011;64505;51.458;7.556;2023-04-24T01:23:44;5.32;;;1.20;;
75774;SDS011;64505;51.458;7.556;2023-04-24T01:25:46;5.55;;;1.30;;
75774;SDS011;64505;51.458;7.556;2023-04-24T01:27:49;2.30;;;1.13;;
75774;SDS011;64505;51.458;7.556;2023-04-24T01:29:51;2.63;;;1.60;;
75774;SDS011;64505;51.458;7.556;2023-04-24T01:31:53;3.00;;;1.50;;
75774;SDS011;64505;51.458;7.556;2023-04-24T01:33:56;5.15;;;2.50;;
75774;SDS011;64505;51.458;7.556;2023-04-24T01:35:57;4.68;;;2.40;;
75774;SDS011;64505;51.458;7.556;2023-04-24T01:37:59;4.15;;;2.30;;
75774;SDS011;64505;51.458;7.556;2023-04-24T01:40:00;5.22;;;2.22;;
75774;SDS011;64505;51.458;7.556;2023-04-24T01:42:02;6.18;;;2.35;;
75774;SDS011;64505;51.458;7.556;2023-04-24T01:44:03;3.40;;;1.75;;
75774;SDS011;64505;51.458;7.556;2023-04-24T01:46:05;3.47;;;1.45;;
75774;SDS011;64505;51.458;7.556;2023-04-24T01:48:07;3.63;;;1.80;;
75774;SDS011;64505;51.458;7.556;2023-04-24T01:50:09;4.43;;;1.58;;
75774;SDS011;64505;51.458;7.556;2023-04-24T01:52:11;3.10;;;1.60;;
75774;SDS011;64505;51.458;7.556;2023-04-24T01:54:12;2.88;;;1.52;;
75774;SDS011;64505;51.458;7.556;2023-04-24T01:56:14;4.03;;;1.25;;
75774;SDS011;64505;51.458;7.556;2023-04-24T01:58:16;2.35;;;1.10;;
75774;SDS011;64505;51.458;7.556;2023-04-24T02:00:17;3.58;;;1.30;;
75774;SDS011;64505;51.458;7.556;2023-04-24T02:02:19;2.75;;;1.50;;
75774;SDS011;64505;51.458;7.556;2023-04-24T02:04:22;3.15;;;1.23;;
75774;SDS011;64505;51.458;7.556;2023-04-24T02:06:24;2.30;;;1.27;;
75774;SDS011;64505;51.458;7.556;2023-04-24T02:08:25;5.63;;;1.33;;
75774;SDS011;64505;51.458;7.556;2023-04-24T02:10:28;4.53;;;1.40;;
75774;SDS011;64505;51.458;7.556;2023-04-24T02:12:30;2.75;;;1.40;;
75774;SDS011;64505;51.458;7.556;2023-04-24T02:14:31;4.97;;;1.80;;
75774;SDS011;64505;51.458;7.556;2023-04-24T02:16:33;3.03;;;1.55;;
75774;SDS011;64505;51.458;7.556;2023-04-24T02:18:34;3.92;;;1.88;;
75774;SDS011;64505;51.458;7.556;2023-04-24T02:20:36;4.05;;;1.80;;
75774;SDS011;64505;51.458;7.556;2023-04-24T02:22:38;3.17;;;1.88;;
75774;SDS011;64505;51.458;7.556;2023-04-24T02:24:39;4.35;;;2.00;;
75774;SDS011;64505;51.458;7.556;2023-04-24T02:26:41;3.63;;;1.42;;
75774;SDS011;64505;51.458;7.556;2023-04-24T02:28:42;4.63;;;1.90;;
75774;SDS011;64505;51.458;7.556;2023-04-24T02:30:43;4.22;;;1.85;;
75774;SDS011;64505;51.458;7.556;2023-04-24T02:32:45;3.20;;;1.60;;
75774;SDS011;64505;51.458;7.556;2023-04-24T02:34:46;3.38;;;1.77;;
75774;SDS011;64505;51.458;7.556;2023-04-24T02:36:48;4.60;;;1.70;;
75774;SDS011;64505;51.458;7.556;2023-04-24T02:38:50;4.13;;;1.80;;
75774;SDS011;64505;51.458;7.556;2023-04-24T02:40:51;4.13;;;1.85;;
75774;SDS011;64505;51.458;7.556;2023-04-24T02:42:53;4.45;;;2.13;;
75774;SDS011;64505;51.458;7.556;2023-04-24T02:44:54;3.88;;;2.17;;
75774;SDS011;64505;51.458;7.556;2023-04-24T02:46:56;3.78;;;2.10;;
75774;SDS011;64505;51.458;7.556;2023-04-24T02:48:57;4.10;;;2.15;;
75774;SDS011;64505;51.458;7.556;2023-04-24T02:50:58;4.05;;;1.85;;
75774;SDS011;64505;51.458;7.556;2023-04-24T02:53:00;9.27;;;2.60;;
75774;SDS011;64505;51.458;7.556;2023-04-24T02:55:02;5.20;;;2.33;;
75774;SDS011;64505;51.458;7.556;2023-04-24T02:57:03;5.78;;;2.42;;
75774;SDS011;64505;51.458;7.556;2023-04-24T02:59:04;4.78;;;2.10;;
75774;SDS011;64505;51.458;7.556;2023-04-24T03:01:06;6.43;;;2.33;;
75774;SDS011;64505;51.458;7.556;2023-04-24T03:03:08;5.63;;;2.15;;
75774;SDS011;64505;51.458;7.556;2023-04-24T03:05:09;3.45;;;2.00;;
75774;SDS011;64505;51.458;7.556;2023-04-24T03:07:13;3.47;;;1.98;;
75774;SDS011;64505;51.458;7.556;2023-04-24T03:09:15;4.80;;;2.42;;
75774;SDS011;64505;51.458;7.556;2023-04-24T03:11:16;7.35;;;2.50;;
75774;SDS011;64505;51.458;7.556;2023-04-24T03:13:18;6.53;;;2.80;;
75774;SDS011;64505;51.458;7.556;2023-04-24T03:15:19;8.30;;;3.25;;
75774;SDS011;64505;51.458;7.556;2023-04-24T03:17:21;5.65;;;3.30;;
75774;SDS011;64505;51.458;7.556;2023-04-24T03:19:22;6.85;;;3.70;;
75774;SDS011;64505;51.458;7.556;2023-04-24T03:21:23;5.95;;;3.95;;
75774;SDS011;64505;51.458;7.556;2023-04-24T03:23:25;10.85;;;5.00;;
75774;SDS011;64505;51.458;7.556;2023-04-24T03:25:27;8.50;;;4.82;;
75774;SDS011;64505;51.458;7.556;2023-04-24T03:27:28;10.40;;;5.38;;
75774;SDS011;64505;51.458;7.556;2023-04-24T03:29:29;9.68;;;5.63;;
75774;SDS011;64505;51.458;7.556;2023-04-24T03:31:31;10.20;;;5.18;;
75774;SDS011;64505;51.458;7.556;2023-04-24T03:33:32;9.13;;;5.38;;
75774;SDS011;64505;51.458;7.556;2023-04-24T03:35:34;8.98;;;5.28;;
75774;SDS011;64505;51.458;7.556;2023-04-24T03:37:35;12.82;;;6.00;;
75774;SDS011;64505;51.458;7.556;2023-04-24T03:39:37;9.20;;;5.90;;
75774;SDS011;64505;51.458;7.556;2023-04-24T03:41:38;12.50;;;6.53;;
75774;SDS011;64505;51.458;7.556;2023-04-24T03:43:40;12.32;;;6.18;;
75774;SDS011;64505;51.458;7.556;2023-04-24T03:45:41;9.80;;;5.75;;
75774;SDS011;64505;51.458;7.556;2023-04-24T03:47:43;13.05;;;7.20;;
75774;SDS011;64505;51.458;7.556;2023-04-24T03:49:44;16.25;;;8.52;;
75774;SDS011;64505;51.458;7.556;2023-04-24T03:51:45;17.45;;;8.98;;
75774;SDS011;64505;51.458;7.556;2023-04-24T03:53:47;20.65;;;10.13;;
75774;SDS011;64505;51.458;7.556;2023-04-24T03:55:48;18.70;;;10.45;;
75774;SDS011;64505;51.458;7.556;2023-04-24T03:57:50;17.85;;;9.02;;
75774;SDS011;64505;51.458;7.556;2023-04-24T03:59:51;19.98;;;10.13;;
75774;SDS011;64505;51.458;7.556;2023-04-24T04:01:54;23.38;;;11.57;;
75774;SDS011;64505;51.458;7.556;2023-04-24T04:03:56;26.65;;;13.93;;
75774;SDS011;64505;51.458;7.556;2023-04-24T04:05:57;26.73;;;13.65;;
75774;SDS011;64505;51.458;7.556;2023-04-24T04:07:59;26.48;;;13.57;;
75774;SDS011;64505;51.458;7.556;2023-04-24T04:10:01;26.75;;;13.13;;
75774;SDS011;64505;51.458;7.556;2023-04-24T04:12:03;29.55;;;14.85;;
75774;SDS011;64505;51.458;7.556;2023-04-24T04:14:04;28.80;;;13.98;;
75774;SDS011;64505;51.458;7.556;2023-04-24T04:16:06;29.75;;;14.93;;
75774;SDS011;64505;51.458;7.556;2023-04-24T04:18:08;32.83;;;15.43;;
75774;SDS011;64505;51.458;7.556;2023-04-24T04:20:09;28.00;;;14.98;;
75774;SDS011;64505;51.458;7.556;2023-04-24T04:22:11;23.50;;;12.45;;
75774;SDS011;64505;51.458;7.556;2023-04-24T04:24:13;28.77;;;13.40;;
75774;SDS011;64505;51.458;7.556;2023-04-24T04:26:14;23.20;;;11.80;;
75774;SDS011;64505;51.458;7.556;2023-04-24T04:28:16;22.42;;;11.32;;
75774;SDS011;64505;51.458;7.556;2023-04-24T04:30:21;22.25;;;10.75;;
75774;SDS011;64505;51.458;7.556;2023-04-24T04:32:22;16.48;;;8.20;;
75774;SDS011;64505;51.458;7.556;2023-04-24T04:34:24;16.08;;;8.13;;
75774;SDS011;64505;51.458;7.556;2023-04-24T04:36:25;12.05;;;7.80;;
75774;SDS011;64505;51.458;7.556;2023-04-24T04:38:27;18.65;;;7.85;;
75774;SDS011;64505;51.458;7.556;2023-04-24T04:40:31;16.00;;;8.38;;
75774;SDS011;64505;51.458;7.556;2023-04-24T04:42:32;12.35;;;7.30;;
75774;SDS011;64505;51.458;7.556;2023-04-24T04:44:41;16.90;;;7.82;;
75774;SDS011;64505;51.458;7.556;2023-04-24T04:46:42;17.55;;;9.30;;
75774;SDS011;64505;51.458;7.556;2023-04-24T04:48:45;22.05;;;10.40;;
75774;SDS011;64505;51.458;7.556;2023-04-24T04:50:46;14.07;;;8.23;;
75774;SDS011;64505;51.458;7.556;2023-04-24T04:52:48;17.40;;;9.35;;
75774;SDS011;64505;51.458;7.556;2023-04-24T04:54:49;18.52;;;9.52;;
75774;SDS011;64505;51.458;7.556;2023-04-24T04:56:51;21.10;;;10.27;;
75774;SDS011;64505;51.458;7.556;2023-04-24T04:58:52;16.80;;;9.73;;
75774;SDS011;64505;51.458;7.556;2023-04-24T05:00:54;18.73;;;10.15;;
75774;SDS011;64505;51.458;7.556;2023-04-24T05:02:55;20.15;;;10.30;;
75774;SDS011;64505;51.458;7.556;2023-04-24T05:05:13;19.90;;;10.30;;
75774;SDS011;64505;51.458;7.556;2023-04-24T05:07:14;17.00;;;9.82;;
75774;SDS011;64505;51.458;7.556;2023-04-24T05:09:16;17.05;;;9.68;;
75774;SDS011;64505;51.458;7.556;2023-04-24T05:11:17;18.23;;;10.50;;
75774;SDS011;64505;51.458;7.556;2023-04-24T05:13:18;16.20;;;9.80;;
75774;SDS011;64505;51.458;7.556;2023-04-24T05:17:33;18.83;;;9.90;;
75774;SDS011;64505;51.458;7.556;2023-04-24T05:19:35;17.25;;;10.35;;
75774;SDS011;64505;51.458;7.556;2023-04-24T05:21:39;17.55;;;9.70;;
75774;SDS011;64505;51.458;7.556;2023-04-24T05:23:41;17.25;;;10.27;;
75774;SDS011;64505;51.458;7.556;2023-04-24T05:25:42;17.00;;;9.80;;
75774;SDS011;64505;51.458;7.556;2023-04-24T05:27:44;18.00;;;9.68;;
75774;SDS011;64505;51.458;7.556;2023-04-24T05:29:46;14.43;;;8.90;;
75774;SDS011;64505;51.458;7.556;2023-04-24T05:31:48;17.02;;;9.38;;
75774;SDS011;64505;51.458;7.556;2023-04-24T05:33:49;13.23;;;8.35;;
75774;SDS011;64505;51.458;7.556;2023-04-24T05:35:51;12.80;;;8.15;;
75774;SDS011;64505;51.458;7.556;2023-04-24T05:37:52;17.45;;;9.10;;
75774;SDS011;64505;51.458;7.556;2023-04-24T05:39:54;17.02;;;9.00;;
75774;SDS011;64505;51.458;7.556;2023-04-24T05:41:55;17.20;;;9.07;;
75774;SDS011;64505;51.458;7.556;2023-04-24T05:43:59;16.90;;;10.07;;
75774;SDS011;64505;51.458;7.556;2023-04-24T05:46:00;15.77;;;8.90;;
75774;SDS011;64505;51.458;7.556;2023-04-24T05:48:02;15.27;;;9.35;;
75774;SDS011;64505;51.458;7.556;2023-04-24T05:50:04;16.48;;;8.93;;
75774;SDS011;64505;51.458;7.556;2023-04-24T05:52:07;14.90;;;7.97;;
75774;SDS011;64505;51.458;7.556;2023-04-24T05:54:10;14.63;;;7.93;;
75774;SDS011;64505;51.458;7.556;2023-04-24T05:56:13;16.15;;;8.90;;
75774;SDS011;64505;51.458;7.556;2023-04-24T05:58:14;12.77;;;8.18;;
75774;SDS011;64505;51.458;7.556;2023-04-24T06:00:16;11.77;;;6.60;;
75774;SDS011;64505;51.458;7.556;2023-04-24T06:02:20;11.98;;;6.72;;
75774;SDS011;64505;51.458;7.556;2023-04-24T06:04:21;12.13;;;5.95;;
75774;SDS011;64505;51.458;7.556;2023-04-24T06:06:24;10.00;;;5.53;;
75774;SDS011;64505;51.458;7.556;2023-04-24T06:08:26;8.80;;;5.53;;
75774;SDS011;64505;51.458;7.556;2023-04-24T06:10:28;11.13;;;6.35;;
75774;SDS011;64505;51.458;7.556;2023-04-24T06:12:29;11.60;;;7.20;;
75774;SDS011;64505;51.458;7.556;2023-04-24T06:14:31;12.70;;;8.18;;
75774;SDS011;64505;51.458;7.556;2023-04-24T06:16:32;13.23;;;7.32;;
75774;SDS011;64505;51.458;7.556;2023-04-24T06:18:34;12.82;;;8.10;;
75774;SDS011;64505;51.458;7.556;2023-04-24T06:20:36;15.55;;;8.55;;
75774;SDS011;64505;51.458;7.556;2023-04-24T06:22:40;12.95;;;8.40;;
75774;SDS011;64505;51.458;7.556;2023-04-24T06:24:41;14.57;;;8.27;;
75774;SDS011;64505;51.458;7.556;2023-04-24T06:26:43;12.95;;;7.53;;
75774;SDS011;64505;51.458;7.556;2023-04-24T06:28:44;14.90;;;8.98;;
75774;SDS011;64505;51.458;7.556;2023-04-24T06:30:46;11.73;;;7.32;;
75774;SDS011;64505;51.458;7.556;2023-04-24T06:32:47;14.57;;;8.80;;
75774;SDS011;64505;51.458;7.556;2023-04-24T06:34:50;13.65;;;8.32;;
75774;SDS011;64505;51.458;7.556;2023-04-24T06:36:53;13.48;;;7.95;;
75774;SDS011;64505;51.458;7.556;2023-04-24T06:38:56;11.93;;;7.22;;
75774;SDS011;64505;51.458;7.556;2023-04-24T06:40:58;11.05;;;7.28;;
75774;SDS011;64505;51.458;7.556;2023-04-24T06:42:59;10.13;;;5.80;;
75774;SDS011;64505;51.458;7.556;2023-04-24T06:45:03;9.30;;;5.68;;
75774;SDS011;64505;51.458;7.556;2023-04-24T06:47:12;11.57;;;5.93;;
75774;SDS011;64505;51.458;7.556;2023-04-24T06:49:16;10.20;;;5.13;;
75774;SDS011;64505;51.458;7.556;2023-04-24T06:51:18;10.27;;;6.05;;
75774;SDS011;64505;51.458;7.556;2023-04-24T06:53:19;8.48;;;5.25;;
75774;SDS011;64505;51.458;7.556;2023-04-24T06:55:21;10.45;;;6.40;;
75774;SDS011;64505;51.458;7.556;2023-04-24T06:57:22;12.77;;;6.07;;
75774;SDS011;64505;51.458;7.556;2023-04-24T06:59:24;8.43;;;5.13;;
75774;SDS011;64505;51.458;7.556;2023-04-24T07:01:26;9.27;;;5.32;;
75774;SDS011;64505;51.458;7.556;2023-04-24T07:03:27;9.77;;;4.40;;
75774;SDS011;64505;51.458;7.556;2023-04-24T07:05:29;7.13;;;4.13;;
75774;SDS011;64505;51.458;7.556;2023-04-24T07:07:30;5.68;;;3.58;;
75774;SDS011;64505;51.458;7.556;2023-04-24T07:09:32;8.40;;;4.10;;
75774;SDS011;64505;51.458;7.556;2023-04-24T07:11:33;6.68;;;4.10;;
75774;SDS011;64505;51.458;7.556;2023-04-24T07:13:35;6.93;;;4.25;;
75774;SDS011;64505;51.458;7.556;2023-04-24T07:15:36;8.77;;;4.80;;
75774;SDS011;64505;51.458;7.556;2023-04-24T07:17:38;9.02;;;5.03;;
75774;SDS011;64505;51.458;7.556;2023-04-24T07:19:39;7.72;;;4.03;;
75774;SDS011;64505;51.458;7.556;2023-04-24T07:21:41;8.55;;;4.40;;
75774;SDS011;64505;51.458;7.556;2023-04-24T07:23:43;6.43;;;3.92;;
75774;SDS011;64505;51.458;7.556;2023-04-24T07:25:44;6.97;;;3.85;;
75774;SDS011;64505;51.458;7.556;2023-04-24T07:27:46;5.22;;;3.35;;
75774;SDS011;64505;51.458;7.556;2023-04-24T07:29:47;7.13;;;3.58;;
75774;SDS011;64505;51.458;7.556;2023-04-24T07:31:49;6.13;;;3.45;;
75774;SDS011;64505;51.458;7.556;2023-04-24T07:33:51;4.95;;;3.13;;
75774;SDS011;64505;51.458;7.556;2023-04-24T07:35:54;6.13;;;3.47;;
75774;SDS011;64505;51.458;7.556;2023-04-24T07:37:56;6.95;;;3.22;;
75774;SDS011;64505;51.458;7.556;2023-04-24T07:39:58;8.40;;;3.47;;
75774;SDS011;64505;51.458;7.556;2023-04-24T07:41:59;6.20;;;2.75;;
75774;SDS011;64505;51.458;7.556;2023-04-24T07:44:00;5.82;;;3.25;;
75774;SDS011;64505;51.458;7.556;2023-04-24T07:46:02;6.03;;;2.80;;
75774;SDS011;64505;51.458;7.556;2023-04-24T07:48:03;6.18;;;3.38;;
75774;SDS011;64505;51.458;7.556;2023-04-24T07:50:05;5.57;;;3.35;;
75774;SDS011;64505;51.458;7.556;2023-04-24T07:52:07;6.47;;;2.88;;
75774;SDS011;64505;51.458;7.556;2023-04-24T07:54:09;5.40;;;2.75;;
75774;SDS011;64505;51.458;7.556;2023-04-24T07:56:10;4.80;;;3.00;;
75774;SDS011;64505;51.458;7.556;2023-04-24T07:58:12;5.32;;;2.90;;
75774;SDS011;64505;51.458;7.556;2023-04-24T08:00:13;4.95;;;2.60;;
75774;SDS011;64505;51.458;7.556;2023-04-24T08:02:15;5.28;;;2.63;;
75774;SDS011;64505;51.458;7.556;2023-04-24T08:04:17;6.35;;;2.90;;
75774;SDS011;64505;51.458;7.556;2023-04-24T08:06:19;5.07;;;2.92;;
75774;SDS011;64505;51.458;7.556;2023-04-24T08:08:21;5.55;;;2.70;;
75774;SDS011;64505;51.458;7.556;2023-04-24T08:10:24;5.13;;;2.65;;
75774;SDS011;64505;51.458;7.556;2023-04-24T08:12:28;6.78;;;3.55;;
75774;SDS011;64505;51.458;7.556;2023-04-24T08:14:30;6.75;;;3.72;;
75774;SDS011;64505;51.458;7.556;2023-04-24T08:16:32;7.00;;;3.72;;
75774;SDS011;64505;51.458;7.556;2023-04-24T08:18:34;6.25;;;3.95;;
75774;SDS011;64505;51.458;7.556;2023-04-24T08:20:37;6.85;;;3.92;;
75774;SDS011;64505;51.458;7.556;2023-04-24T08:22:38;7.68;;;3.83;;
75774;SDS011;64505;51.458;7.556;2023-04-24T08:24:41;6.35;;;3.60;;
75774;SDS011;64505;51.458;7.556;2023-04-24T08:26:43;4.00;;;1.65;;
75774;SDS011;64505;51.458;7.556;2023-04-24T08:28:44;2.97;;;1.58;;
75774;SDS011;64505;51.458;7.556;2023-04-24T08:30:46;4.35;;;1.80;;
75774;SDS011;64505;51.458;7.556;2023-04-24T08:32:48;4.20;;;2.50;;
75774;SDS011;64505;51.458;7.556;2023-04-24T08:34:50;5.70;;;2.85;;
75774;SDS011;64505;51.458;7.556;2023-04-24T08:36:53;7.38;;;3.08;;
75774;SDS011;64505;51.458;7.556;2023-04-24T08:38:55;4.20;;;2.15;;
75774;SDS011;64505;51.458;7.556;2023-04-24T08:40:57;2.60;;;1.45;;
75774;SDS011;64505;51.458;7.556;2023-04-24T08:43:00;2.03;;;1.05;;
75774;SDS011;64505;51.458;7.556;2023-04-24T08:45:02;2.33;;;0.60;;
75774;SDS011;64505;51.458;7.556;2023-04-24T08:47:03;1.85;;;0.80;;
75774;SDS011;64505;51.458;7.556;2023-04-24T08:49:06;1.02;;;0.60;;
75774;SDS011;64505;51.458;7.556;2023-04-24T08:51:08;1.08;;;0.50;;
75774;SDS011;64505;51.458;7.556;2023-04-24T08:53:10;1.35;;;0.52;;
75774;SDS011;64505;51.458;7.556;2023-04-24T08:55:11;1.58;;;0.50;;
75774;SDS011;64505;51.458;7.556;2023-04-24T08:57:14;0.47;;;0.32;;
75774;SDS011;64505;51.458;7.556;2023-04-24T08:59:16;0.65;;;0.22;;
75774;SDS011;64505;51.458;7.556;2023-04-24T09:01:18;0.88;;;0.40;;
75774;SDS011;64505;51.458;7.556;2023-04-24T09:03:21;2.25;;;1.10;;
75774;SDS011;64505;51.458;7.556;2023-04-24T09:05:23;3.63;;;1.25;;
75774;SDS011;64505;51.458;7.556;2023-04-24T09:07:28;2.78;;;1.27;;
75774;SDS011;64505;51.458;7.556;2023-04-24T09:09:35;1.92;;;1.20;;
75774;SDS011;64505;51.458;7.556;2023-04-24T09:11:39;0.77;;;0.63;;
75774;SDS011;64505;51.458;7.556;2023-04-24T09:13:41;1.73;;;0.60;;
75774;SDS011;64505;51.458;7.556;2023-04-24T09:15:44;2.97;;;0.50;;
75774;SDS011;64505;51.458;7.556;2023-04-24T09:17:46;1.95;;;1.02;;
75774;SDS011;64505;51.458;7.556;2023-04-24T09:19:48;1.15;;;0.47;;
75774;SDS011;64505;51.458;7.556;2023-04-24T09:21:50;2.15;;;0.82;;
75774;SDS011;64505;51.458;7.556;2023-04-24T09:24:06;0.85;;;0.52;;
75774;SDS011;64505;51.458;7.556;2023-04-24T09:26:09;1.17;;;0.43;;
75774;SDS011;64505;51.458;7.556;2023-04-24T09:28:11;1.10;;;0.32;;
75774;SDS011;64505;51.458;7.556;2023-04-24T09:30:13;3.13;;;0.60;;
75774;SDS011;64505;51.458;7.556;2023-04-24T09:32:18;1.23;;;0.65;;
75774;SDS011;64505;51.458;7.556;2023-04-24T09:34:26;1.42;;;0.70;;
75774;SDS011;64505;51.458;7.556;2023-04-24T09:36:32;1.15;;;0.52;;
75774;SDS011;64505;51.458;7.556;2023-04-24T09:38:36;0.80;;;0.60;;
75774;SDS011;64505;51.458;7.556;2023-04-24T09:40:38;1.48;;;0.52;;
75774;SDS011;64505;51.458;7.556;2023-04-24T09:42:45;1.25;;;0.60;;
75774;SDS011;64505;51.458;7.556;2023-04-24T09:44:49;1.20;;;0.68;;
75774;SDS011;64505;51.458;7.556;2023-04-24T09:47:04;2.15;;;0.80;;
75774;SDS011;64505;51.458;7.556;2023-04-24T09:49:13;2.00;;;1.35;;
75774;SDS011;64505;51.458;7.556;2023-04-24T09:51:17;2.22;;;0.80;;
75774;SDS011;64505;51.458;7.556;2023-04-24T09:53:34;0.80;;;0.60;;
75774;SDS011;64505;51.458;7.556;2023-04-24T09:55:39;1.27;;;0.63;;
75774;SDS011;64505;51.458;7.556;2023-04-24T09:57:49;1.40;;;0.80;;
75774;SDS011;64505;51.458;7.556;2023-04-24T09:59:56;1.60;;;0.90;;
75774;SDS011;64505;51.458;7.556;2023-04-24T10:01:59;3.05;;;0.82;;
75774;SDS011;64505;51.458;7.556;2023-04-24T10:04:02;2.20;;;1.40;;
75774;SDS011;64505;51.458;7.556;2023-04-24T10:06:03;1.48;;;0.80;;
75774;SDS011;64505;51.458;7.556;2023-04-24T10:08:11;1.13;;;0.80;;
75774;SDS011;64505;51.458;7.556;2023-04-24T10:10:12;0.80;;;0.60;;
75774;SDS011;64505;51.458;7.556;2023-04-24T10:12:14;0.93;;;0.80;;
75774;SDS011;64505;51.458;7.556;2023-04-24T10:14:17;2.28;;;0.60;;
75774;SDS011;64505;51.458;7.556;2023-04-24T10:16:20;1.75;;;0.80;;
75774;SDS011;64505;51.458;7.556;2023-04-24T10:18:23;1.98;;;1.00;;
75774;SDS011;64505;51.458;7.556;2023-04-24T10:20:27;2.22;;;0.82;;
75774;SDS011;64505;51.458;7.556;2023-04-24T10:22:32;1.70;;;0.93;;
75774;SDS011;64505;51.458;7.556;2023-04-24T10:24:33;1.52;;;0.85;;
75774;SDS011;64505;51.458;7.556;2023-04-24T10:26:37;1.80;;;0.95;;
75774;SDS011;64505;51.458;7.556;2023-04-24T10:28:39;2.28;;;1.25;;
75774;SDS011;64505;51.458;7.556;2023-04-24T10:30:43;2.85;;;1.50;;
75774;SDS011;64505;51.458;7.556;2023-04-24T10:32:45;4.72;;;1.55;;
75774;SDS011;64505;51.458;7.556;2023-04-24T10:34:47;3.22;;;1.55;;
75774;SDS011;64505;51.458;7.556;2023-04-24T10:36:51;5.38;;;1.45;;
75774;SDS011;64505;51.458;7.556;2023-04-24T10:38:57;2.13;;;0.90;;
75774;SDS011;64505;51.458;7.556;2023-04-24T10:41:10;3.28;;;1.35;;
75774;SDS011;64505;51.458;7.556;2023-04-24T10:43:17;2.45;;;1.33;;
75774;SDS011;64505;51.458;7.556;2023-04-24T10:45:20;4.55;;;1.60;;
75774;SDS011;64505;51.458;7.556;2023-04-24T10:47:24;4.35;;;1.33;;
75774;SDS011;64505;51.458;7.556;2023-04-24T10:49:29;3.15;;;1.30;;
75774;SDS011;64505;51.458;7.556;2023-04-24T10:51:48;2.85;;;1.52;;
75774;SDS011;64505;51.458;7.556;2023-04-24T10:53:51;2.50;;;1.33;;
75774;SDS011;64505;51.458;7.556;2023-04-24T10:58:14;3.63;;;1.77;;
75774;SDS011;64505;51.458;7.556;2023-04-24T11:00:18;3.00;;;1.52;;
75774;SDS011;64505;51.458;7.556;2023-04-24T11:02:35;3.50;;;1.60;;
75774;SDS011;64505;51.458;7.556;2023-04-24T11:04:38;4.03;;;1.60;;
75774;SDS011;64505;51.458;7.556;2023-04-24T11:06:39;4.50;;;2.00;;
75774;SDS011;64505;51.458;7.556;2023-04-24T11:08:44;4.57;;;2.00;;
75774;SDS011;64505;51.458;7.556;2023-04-24T11:10:47;3.72;;;1.88;;
75774;SDS011;64505;51.458;7.556;2023-04-24T11:12:58;3.80;;;2.03;;
75774;SDS011;64505;51.458;7.556;2023-04-24T11:15:00;4.43;;;2.20;;
75774;SDS011;64505;51.458;7.556;2023-04-24T11:17:02;4.95;;;1.73;;
75774;SDS011;64505;51.458;7.556;2023-04-24T11:19:08;4.68;;;2.13;;
75774;SDS011;64505;51.458;7.556;2023-04-24T11:21:12;3.92;;;1.92;;
75774;SDS011;64505;51.458;7.556;2023-04-24T11:23:14;6.78;;;2.47;;
75774;SDS011;64505;51.458;7.556;2023-04-24T11:25:15;7.35;;;3.05;;
75774;SDS011;64505;51.458;7.556;2023-04-24T11:29:22;6.53;;;3.20;;
75774;SDS011;64505;51.458;7.556;2023-04-24T11:31:39;7.70;;;3.70;;
75774;SDS011;64505;51.458;7.556;2023-04-24T11:33:49;6.60;;;2.50;;
75774;SDS011;64505;51.458;7.556;2023-04-24T11:35:51;7.43;;;3.67;;
75774;SDS011;64505;51.458;7.556;2023-04-24T11:37:53;8.18;;;3.72;;
75774;SDS011;64505;51.458;7.556;2023-04-24T11:39:58;9.40;;;4.15;;
75774;SDS011;64505;51.458;7.556;2023-04-24T11:42:03;6.90;;;3.42;;
75774;SDS011;64505;51.458;7.556;2023-04-24T11:44:08;9.10;;;3.10;;
75774;SDS011;64505;51.458;7.556;2023-04-24T11:46:10;8.13;;;4.07;;
75774;SDS011;64505;51.458;7.556;2023-04-24T11:48:12;9.63;;;4.15;;
75774;SDS011;64505;51.458;7.556;2023-04-24T11:50:14;6.78;;;3.78;;
75774;SDS011;64505;51.458;7.556;2023-04-24T11:52:16;9.38;;;4.95;;
75774;SDS011;64505;51.458;7.556;2023-04-24T11:54:18;10.27;;;4.20;;
75774;SDS011;64505;51.458;7.556;2023-04-24T11:56:21;10.55;;;4.35;;
75774;SDS011;64505;51.458;7.556;2023-04-24T11:58:23;9.48;;;3.75;;
75774;SDS011;64505;51.458;7.556;2023-04-24T12:00:28;12.63;;;5.07;;
75774;SDS011;64505;51.458;7.556;2023-04-24T12:02:31;11.63;;;4.40;;
75774;SDS011;64505;51.458;7.556;2023-04-24T12:04:41;10.82;;;5.25;;
75774;SDS011;64505;51.458;7.556;2023-04-24T12:06:59;10.05;;;4.35;;
75774;SDS011;64505;51.458;7.556;2023-04-24T12:09:01;11.10;;;3.90;;
75774;SDS011;64505;51.458;7.556;2023-04-24T12:11:17;9.80;;;4.80;;
75774;SDS011;64505;51.458;7.556;2023-04-24T12:13:19;11.07;;;5.00;;
75774;SDS011;64505;51.458;7.556;2023-04-24T12:15:21;10.15;;;4.35;;
75774;SDS011;64505;51.458;7.556;2023-04-24T12:17:23;8.23;;;3.75;;
75774;SDS011;64505;51.458;7.556;2023-04-24T12:19:29;10.55;;;4.53;;
75774;SDS011;64505;51.458;7.556;2023-04-24T12:21:30;8.38;;;4.32;;